sensor_id;sensor_type;location;lat;lon;timestamp;P1;durP1;ratioP1;P2;durP2;ratioP2
12348;SDS011;5974;42.710;27.258;2023-07-02T00:01:48;3.03;;;1.87;;
12348;SDS011;5974;42.710;27.258;2023-07-02T00:04:16;2.17;;;1.90;;
12348;SDS011;5974;42.710;27.258;2023-07-02T00:06:44;1.90;;;1.80;;
12348;SDS011;5974;42.710;27.258;2023-07-02T00:09:13;4.57;;;2.20;;
12348;SDS011;5974;42.710;27.258;2023-07-02T00:11:41;2.30;;;2.10;;
12348;SDS011;5974;42.710;27.258;2023-07-02T00:14:11;2.53;;;2.30;;
12348;SDS011;5974;42.710;27.258;2023-07-02T00:16:38;3.77;;;2.40;;
12348;SDS011;5974;42.710;27.258;2023-07-02T00:19:07;2.33;;;2.13;;
12348;SDS011;5974;42.710;27.258;2023-07-02T00:21:34;3.00;;;2.17;;
12348;SDS011;5974;42.710;27.258;2023-07-02T00:24:02;2.83;;;2.20;;
12348;SDS011;5974;42.710;27.258;2023-07-02T00:26:31;2.20;;;2.10;;
12348;SDS011;5974;42.710;27.258;2023-07-02T00:28:58;2.37;;;2.20;;
12348;SDS011;5974;42.710;27.258;2023-07-02T00:31:25;2.13;;;2.03;;
12348;SDS011;5974;42.710;27.258;2023-07-02T00:33:51;2.30;;;2.20;;
12348;SDS011;5974;42.710;27.258;2023-07-02T00:36:18;2.80;;;2.60;;
12348;SDS011;5974;42.710;27.258;2023-07-02T00:38:46;3.43;;;2.40;;
12348;SDS011;5974;42.710;27.258;2023-07-02T00:41:14;2.50;;;2.30;;
12348;SDS011;5974;42.710;27.258;2023-07-02T00:43:42;5.33;;;2.57;;
12348;SDS011;5974;42.710;27.258;2023-07-02T00:46:11;2.00;;;1.90;;
12348;SDS011;5974;42.710;27.258;2023-07-02T00:48:43;2.23;;;2.03;;
12348;SDS011;5974;42.710;27.258;2023-07-02T00:51:11;2.37;;;2.20;;
12348;SDS011;5974;42.710;27.258;2023-07-02T00:53:41;2.57;;;2.17;;
12348;SDS011;5974;42.710;27.258;2023-07-02T00:56:08;2.87;;;2.40;;
12348;SDS011;5974;42.710;27.258;2023-07-02T00:58:35;2.30;;;2.20;;
12348;SDS011;5974;42.710;27.258;2023-07-02T01:01:06;2.47;;;2.07;;
12348;SDS011;5974;42.710;27.258;2023-07-02T01:03:34;2.30;;;2.10;;
12348;SDS011;5974;42.710;27.258;2023-07-02T01:06:02;2.70;;;2.50;;
12348;SDS011;5974;42.710;27.258;2023-07-02T01:08:29;2.20;;;2.10;;
12348;SDS011;5974;42.710;27.258;2023-07-02T01:10:56;2.97;;;2.23;;
12348;SDS011;5974;42.710;27.258;2023-07-02T01:13:24;2.87;;;2.23;;
12348;SDS011;5974;42.710;27.258;2023-07-02T01:15:53;2.10;;;2.00;;
12348;SDS011;5974;42.710;27.258;2023-07-02T01:18:22;2.27;;;2.17;;
12348;SDS011;5974;42.710;27.258;2023-07-02T01:20:50;3.10;;;2.10;;
12348;SDS011;5974;42.710;27.258;2023-07-02T01:23:19;4.07;;;2.30;;
12348;SDS011;5974;42.710;27.258;2023-07-02T01:25:47;4.03;;;2.40;;
12348;SDS011;5974;42.710;27.258;2023-07-02T01:28:17;2.87;;;2.67;;
12348;SDS011;5974;42.710;27.258;2023-07-02T01:30:45;2.67;;;2.40;;
12348;SDS011;5974;42.710;27.258;2023-07-02T01:33:12;2.67;;;2.37;;
12348;SDS011;5974;42.710;27.258;2023-07-02T01:35:38;3.03;;;2.33;;
12348;SDS011;5974;42.710;27.258;2023-07-02T01:38:07;2.90;;;2.60;;
12348;SDS011;5974;42.710;27.258;2023-07-02T01:40:34;2.77;;;2.57;;
12348;SDS011;5974;42.710;27.258;2023-07-02T01:43:00;6.93;;;2.63;;
12348;SDS011;5974;42.710;27.258;2023-07-02T01:45:28;2.80;;;2.37;;
12348;SDS011;5974;42.710;27.258;2023-07-02T01:47:54;2.77;;;2.57;;
12348;SDS011;5974;42.710;27.258;2023-07-02T01:50:21;2.47;;;2.37;;
12348;SDS011;5974;42.710;27.258;2023-07-02T01:52:48;2.53;;;2.33;;
12348;SDS011;5974;42.710;27.258;2023-07-02T01:55:16;3.63;;;2.33;;
12348;SDS011;5974;42.710;27.258;2023-07-02T01:57:44;2.77;;;2.57;;
12348;SDS011;5974;42.710;27.258;2023-07-02T02:00:11;3.23;;;2.50;;
12348;SDS011;5974;42.710;27.258;2023-07-02T02:02:38;2.60;;;2.40;;
12348;SDS011;5974;42.710;27.258;2023-07-02T02:05:05;2.73;;;2.57;;
12348;SDS011;5974;42.710;27.258;2023-07-02T02:07:33;2.70;;;2.50;;
12348;SDS011;5974;42.710;27.258;2023-07-02T02:10:01;3.07;;;2.37;;
12348;SDS011;5974;42.710;27.258;2023-07-02T02:12:29;2.60;;;2.50;;
12348;SDS011;5974;42.710;27.258;2023-07-02T02:14:56;2.70;;;2.50;;
12348;SDS011;5974;42.710;27.258;2023-07-02T02:17:23;2.80;;;2.60;;
12348;SDS011;5974;42.710;27.258;2023-07-02T02:19:50;3.00;;;2.50;;
12348;SDS011;5974;42.710;27.258;2023-07-02T02:22:16;3.30;;;2.30;;
12348;SDS011;5974;42.710;27.258;2023-07-02T02:24:43;3.00;;;2.30;;
12348;SDS011;5974;42.710;27.258;2023-07-02T02:27:10;2.60;;;2.40;;
12348;SDS011;5974;42.710;27.258;2023-07-02T02:29:38;2.87;;;2.60;;
12348;SDS011;5974;42.710;27.258;2023-07-02T02:32:05;2.87;;;2.67;;
12348;SDS011;5974;42.710;27.258;2023-07-02T02:34:33;2.97;;;2.27;;
12348;SDS011;5974;42.710;27.258;2023-07-02T02:37:00;3.83;;;2.60;;
12348;SDS011;5974;42.710;27.258;2023-07-02T02:39:26;2.77;;;2.47;;
12348;SDS011;5974;42.710;27.258;2023-07-02T02:41:53;2.50;;;2.40;;
12348;SDS011;5974;42.710;27.258;2023-07-02T02:44:20;2.47;;;2.30;;
12348;SDS011;5974;42.710;27.258;2023-07-02T02:46:48;2.50;;;2.30;;
12348;SDS011;5974;42.710;27.258;2023-07-02T02:49:15;3.97;;;2.60;;
12348;SDS011;5974;42.710;27.258;2023-07-02T02:51:42;2.90;;;2.60;;
12348;SDS011;5974;42.710;27.258;2023-07-02T02:54:09;3.70;;;2.40;;
12348;SDS011;5974;42.710;27.258;2023-07-02T02:56:36;4.10;;;2.10;;
12348;SDS011;5974;42.710;27.258;2023-07-02T02:59:02;4.40;;;2.67;;
12348;SDS011;5974;42.710;27.258;2023-07-02T03:01:29;3.97;;;2.50;;
12348;SDS011;5974;42.710;27.258;2023-07-02T03:03:58;2.00;;;1.90;;
12348;SDS011;5974;42.710;27.258;2023-07-02T03:06:25;4.13;;;2.40;;
12348;SDS011;5974;42.710;27.258;2023-07-02T03:08:52;3.40;;;2.57;;
12348;SDS011;5974;42.710;27.258;2023-07-02T03:11:19;4.30;;;2.13;;
12348;SDS011;5974;42.710;27.258;2023-07-02T03:13:46;2.87;;;2.67;;
12348;SDS011;5974;42.710;27.258;2023-07-02T03:16:13;4.23;;;2.53;;
12348;SDS011;5974;42.710;27.258;2023-07-02T03:18:40;2.37;;;2.17;;
12348;SDS011;5974;42.710;27.258;2023-07-02T03:21:09;3.40;;;2.63;;
12348;SDS011;5974;42.710;27.258;2023-07-02T03:23:36;2.80;;;2.50;;
12348;SDS011;5974;42.710;27.258;2023-07-02T03:26:03;3.23;;;2.30;;
12348;SDS011;5974;42.710;27.258;2023-07-02T03:28:29;2.40;;;2.30;;
12348;SDS011;5974;42.710;27.258;2023-07-02T03:30:58;2.80;;;2.60;;
12348;SDS011;5974;42.710;27.258;2023-07-02T03:33:25;2.43;;;2.33;;
12348;SDS011;5974;42.710;27.258;2023-07-02T03:35:52;2.30;;;2.20;;
12348;SDS011;5974;42.710;27.258;2023-07-02T03:38:20;4.03;;;2.93;;
12348;SDS011;5974;42.710;27.258;2023-07-02T03:40:47;4.33;;;2.60;;
12348;SDS011;5974;42.710;27.258;2023-07-02T03:43:14;2.67;;;2.47;;
12348;SDS011;5974;42.710;27.258;2023-07-02T03:45:41;2.60;;;2.40;;
12348;SDS011;5974;42.710;27.258;2023-07-02T03:48:08;3.10;;;2.33;;
12348;SDS011;5974;42.710;27.258;2023-07-02T03:50:34;2.67;;;2.47;;
12348;SDS011;5974;42.710;27.258;2023-07-02T03:53:01;3.27;;;2.60;;
12348;SDS011;5974;42.710;27.258;2023-07-02T03:55:30;2.73;;;2.37;;
12348;SDS011;5974;42.710;27.258;2023-07-02T03:57:57;4.10;;;2.30;;
12348;SDS011;5974;42.710;27.258;2023-07-02T04:00:24;2.70;;;2.50;;
12348;SDS011;5974;42.710;27.258;2023-07-02T04:02:51;5.80;;;2.67;;
12348;SDS011;5974;42.710;27.258;2023-07-02T04:05:18;2.60;;;2.40;;
12348;SDS011;5974;42.710;27.258;2023-07-02T04:07:45;2.90;;;2.70;;
12348;SDS011;5974;42.710;27.258;2023-07-02T04:10:12;3.07;;;2.53;;
12348;SDS011;5974;42.710;27.258;2023-07-02T04:12:40;2.40;;;2.30;;
12348;SDS011;5974;42.710;27.258;2023-07-02T04:15:07;5.70;;;2.73;;
12348;SDS011;5974;42.710;27.258;2023-07-02T04:17:35;4.00;;;3.00;;
12348;SDS011;5974;42.710;27.258;2023-07-02T04:20:02;3.37;;;2.90;;
12348;SDS011;5974;42.710;27.258;2023-07-02T04:22:29;4.57;;;2.33;;
12348;SDS011;5974;42.710;27.258;2023-07-02T04:24:56;3.43;;;2.20;;
12348;SDS011;5974;42.710;27.258;2023-07-02T04:27:24;2.50;;;2.30;;
12348;SDS011;5974;42.710;27.258;2023-07-02T04:29:52;6.10;;;3.17;;
12348;SDS011;5974;42.710;27.258;2023-07-02T04:32:20;3.70;;;2.72;;
12348;SDS011;5974;42.710;27.258;2023-07-02T04:34:47;3.20;;;2.40;;
12348;SDS011;5974;42.710;27.258;2023-07-02T04:37:14;2.78;;;2.40;;
12348;SDS011;5974;42.710;27.258;2023-07-02T04:39:41;2.40;;;2.20;;
12348;SDS011;5974;42.710;27.258;2023-07-02T04:42:08;4.45;;;2.42;;
12348;SDS011;5974;42.710;27.258;2023-07-02T04:44:40;7.28;;;2.53;;
12348;SDS011;5974;42.710;27.258;2023-07-02T04:47:09;2.47;;;2.38;;
12348;SDS011;5974;42.710;27.258;2023-07-02T04:49:36;2.95;;;2.70;;
12348;SDS011;5974;42.710;27.258;2023-07-02T04:52:03;5.40;;;2.90;;
12348;SDS011;5974;42.710;27.258;2023-07-02T04:54:31;4.47;;;2.72;;
12348;SDS011;5974;42.710;27.258;2023-07-02T04:56:57;5.05;;;2.58;;
12348;SDS011;5974;42.710;27.258;2023-07-02T04:59:25;5.32;;;2.72;;
12348;SDS011;5974;42.710;27.258;2023-07-02T05:01:52;3.28;;;2.70;;
12348;SDS011;5974;42.710;27.258;2023-07-02T05:04:20;2.95;;;2.65;;
12348;SDS011;5974;42.710;27.258;2023-07-02T05:06:47;3.25;;;2.65;;
12348;SDS011;5974;42.710;27.258;2023-07-02T05:09:13;3.33;;;2.60;;
12348;SDS011;5974;42.710;27.258;2023-07-02T05:11:40;4.05;;;2.63;;
12348;SDS011;5974;42.710;27.258;2023-07-02T05:14:07;4.15;;;2.63;;
12348;SDS011;5974;42.710;27.258;2023-07-02T05:16:34;2.80;;;2.55;;
12348;SDS011;5974;42.710;27.258;2023-07-02T05:19:01;3.03;;;2.83;;
12348;SDS011;5974;42.710;27.258;2023-07-02T05:21:29;4.07;;;2.80;;
12348;SDS011;5974;42.710;27.258;2023-07-02T05:23:56;6.38;;;2.95;;
12348;SDS011;5974;42.710;27.258;2023-07-02T05:26:23;7.50;;;3.28;;
12348;SDS011;5974;42.710;27.258;2023-07-02T05:28:51;3.55;;;2.92;;
12348;SDS011;5974;42.710;27.258;2023-07-02T05:31:18;3.83;;;2.97;;
12348;SDS011;5974;42.710;27.258;2023-07-02T05:33:45;6.18;;;2.75;;
12348;SDS011;5974;42.710;27.258;2023-07-02T05:36:12;4.10;;;2.90;;
12348;SDS011;5974;42.710;27.258;2023-07-02T05:38:40;4.60;;;2.70;;
12348;SDS011;5974;42.710;27.258;2023-07-02T05:41:07;3.28;;;2.67;;
12348;SDS011;5974;42.710;27.258;2023-07-02T05:43:34;2.67;;;2.47;;
12348;SDS011;5974;42.710;27.258;2023-07-02T05:46:00;6.70;;;2.65;;
12348;SDS011;5974;42.710;27.258;2023-07-02T05:48:27;4.57;;;2.55;;
12348;SDS011;5974;42.710;27.258;2023-07-02T05:50:54;3.38;;;2.58;;
12348;SDS011;5974;42.710;27.258;2023-07-02T05:53:21;4.47;;;2.47;;
12348;SDS011;5974;42.710;27.258;2023-07-02T05:55:49;3.22;;;2.75;;
12348;SDS011;5974;42.710;27.258;2023-07-02T05:58:16;6.97;;;2.72;;
12348;SDS011;5974;42.710;27.258;2023-07-02T06:00:43;2.90;;;2.70;;
12348;SDS011;5974;42.710;27.258;2023-07-02T06:03:14;5.20;;;3.08;;
12348;SDS011;5974;42.710;27.258;2023-07-02T06:05:45;3.40;;;3.10;;
12348;SDS011;5974;42.710;27.258;2023-07-02T06:08:14;7.10;;;3.50;;
12348;SDS011;5974;42.710;27.258;2023-07-02T06:10:41;3.38;;;3.08;;
12348;SDS011;5974;42.710;27.258;2023-07-02T06:13:09;3.50;;;2.90;;
12348;SDS011;5974;42.710;27.258;2023-07-02T06:15:36;3.85;;;3.60;;
12348;SDS011;5974;42.710;27.258;2023-07-02T06:18:03;3.30;;;3.10;;
12348;SDS011;5974;42.710;27.258;2023-07-02T06:20:30;5.60;;;3.20;;
12348;SDS011;5974;42.710;27.258;2023-07-02T06:22:57;4.38;;;3.30;;
12348;SDS011;5974;42.710;27.258;2023-07-02T06:25:24;3.72;;;3.38;;
12348;SDS011;5974;42.710;27.258;2023-07-02T06:27:51;4.45;;;3.45;;
12348;SDS011;5974;42.710;27.258;2023-07-02T06:30:21;3.97;;;3.10;;
12348;SDS011;5974;42.710;27.258;2023-07-02T06:32:48;3.83;;;3.40;;
12348;SDS011;5974;42.710;27.258;2023-07-02T06:35:15;10.02;;;5.40;;
12348;SDS011;5974;42.710;27.258;2023-07-02T06:37:42;3.72;;;3.50;;
12348;SDS011;5974;42.710;27.258;2023-07-02T06:40:09;4.10;;;3.70;;
12348;SDS011;5974;42.710;27.258;2023-07-02T06:42:36;4.32;;;3.80;;
12348;SDS011;5974;42.710;27.258;2023-07-02T06:45:04;6.22;;;3.85;;
12348;SDS011;5974;42.710;27.258;2023-07-02T06:47:33;3.85;;;3.33;;
12348;SDS011;5974;42.710;27.258;2023-07-02T06:50:00;5.75;;;4.03;;
12348;SDS011;5974;42.710;27.258;2023-07-02T06:52:27;5.05;;;4.60;;
12348;SDS011;5974;42.710;27.258;2023-07-02T06:54:54;5.15;;;4.30;;
12348;SDS011;5974;42.710;27.258;2023-07-02T06:57:21;5.60;;;4.40;;
12348;SDS011;5974;42.710;27.258;2023-07-02T06:59:48;5.95;;;4.43;;
12348;SDS011;5974;42.710;27.258;2023-07-02T07:02:16;4.85;;;4.28;;
12348;SDS011;5974;42.710;27.258;2023-07-02T07:04:44;4.53;;;4.20;;
12348;SDS011;5974;42.710;27.258;2023-07-02T07:07:11;4.57;;;4.28;;
12348;SDS011;5974;42.710;27.258;2023-07-02T07:09:38;4.55;;;4.18;;
12348;SDS011;5974;42.710;27.258;2023-07-02T07:12:05;6.57;;;4.22;;
12348;SDS011;5974;42.710;27.258;2023-07-02T07:14:33;4.80;;;3.72;;
12348;SDS011;5974;42.710;27.258;2023-07-02T07:16:59;4.75;;;4.35;;
12348;SDS011;5974;42.710;27.258;2023-07-02T07:19:26;5.57;;;4.60;;
12348;SDS011;5974;42.710;27.258;2023-07-02T07:21:55;4.80;;;4.47;;
12348;SDS011;5974;42.710;27.258;2023-07-02T07:24:22;4.70;;;4.20;;
12348;SDS011;5974;42.710;27.258;2023-07-02T07:26:49;4.95;;;4.55;;
12348;SDS011;5974;42.710;27.258;2023-07-02T07:29:16;7.85;;;4.47;;
12348;SDS011;5974;42.710;27.258;2023-07-02T07:31:43;5.97;;;4.40;;
12348;SDS011;5974;42.710;27.258;2023-07-02T07:34:11;4.72;;;4.35;;
12348;SDS011;5974;42.710;27.258;2023-07-02T07:36:38;4.97;;;4.50;;
12348;SDS011;5974;42.710;27.258;2023-07-02T07:39:06;4.90;;;4.55;;
12348;SDS011;5974;42.710;27.258;2023-07-02T07:41:33;4.93;;;4.53;;
12348;SDS011;5974;42.710;27.258;2023-07-02T07:44:00;5.53;;;4.80;;
12348;SDS011;5974;42.710;27.258;2023-07-02T07:46:27;4.53;;;4.15;;
12348;SDS011;5974;42.710;27.258;2023-07-02T07:48:54;5.10;;;4.65;;
12348;SDS011;5974;42.710;27.258;2023-07-02T07:51:21;6.22;;;4.65;;
12348;SDS011;5974;42.710;27.258;2023-07-02T07:53:47;4.90;;;4.60;;
12348;SDS011;5974;42.710;27.258;2023-07-02T07:56:16;5.28;;;4.57;;
12348;SDS011;5974;42.710;27.258;2023-07-02T07:58:42;7.55;;;4.78;;
12348;SDS011;5974;42.710;27.258;2023-07-02T08:01:10;9.30;;;5.50;;
12348;SDS011;5974;42.710;27.258;2023-07-02T08:03:37;8.95;;;5.10;;
12348;SDS011;5974;42.710;27.258;2023-07-02T08:06:04;14.38;;;5.63;;
12348;SDS011;5974;42.710;27.258;2023-07-02T08:08:31;5.43;;;4.68;;
12348;SDS011;5974;42.710;27.258;2023-07-02T08:10:58;6.00;;;5.07;;
12348;SDS011;5974;42.710;27.258;2023-07-02T08:13:26;5.25;;;4.53;;
12348;SDS011;5974;42.710;27.258;2023-07-02T08:15:53;4.93;;;4.50;;
12348;SDS011;5974;42.710;27.258;2023-07-02T08:18:20;5.03;;;4.63;;
12348;SDS011;5974;42.710;27.258;2023-07-02T08:20:47;4.80;;;4.38;;
12348;SDS011;5974;42.710;27.258;2023-07-02T08:23:14;5.53;;;5.03;;
12348;SDS011;5974;42.710;27.258;2023-07-02T08:25:41;5.22;;;4.22;;
12348;SDS011;5974;42.710;27.258;2023-07-02T08:28:08;5.80;;;4.63;;
12348;SDS011;5974;42.710;27.258;2023-07-02T08:30:36;5.55;;;5.00;;
12348;SDS011;5974;42.710;27.258;2023-07-02T08:33:03;5.57;;;4.63;;
12348;SDS011;5974;42.710;27.258;2023-07-02T08:35:29;5.55;;;4.85;;
12348;SDS011;5974;42.710;27.258;2023-07-02T08:37:56;4.78;;;4.32;;
12348;SDS011;5974;42.710;27.258;2023-07-02T08:40:23;6.72;;;5.05;;
12348;SDS011;5974;42.710;27.258;2023-07-02T08:42:50;5.35;;;4.93;;
12348;SDS011;5974;42.710;27.258;2023-07-02T08:45:17;5.97;;;5.47;;
12348;SDS011;5974;42.710;27.258;2023-07-02T08:47:45;5.40;;;5.00;;
12348;SDS011;5974;42.710;27.258;2023-07-02T08:50:12;5.32;;;4.93;;
12348;SDS011;5974;42.710;27.258;2023-07-02T08:52:40;5.15;;;4.65;;
12348;SDS011;5974;42.710;27.258;2023-07-02T08:55:08;5.85;;;4.80;;
12348;SDS011;5974;42.710;27.258;2023-07-02T08:57:35;7.57;;;4.95;;
12348;SDS011;5974;42.710;27.258;2023-07-02T09:00:04;5.72;;;5.10;;
12348;SDS011;5974;42.710;27.258;2023-07-02T09:02:35;5.70;;;5.22;;
12348;SDS011;5974;42.710;27.258;2023-07-02T09:05:03;5.40;;;4.90;;
12348;SDS011;5974;42.710;27.258;2023-07-02T09:07:31;5.55;;;4.70;;
12348;SDS011;5974;42.710;27.258;2023-07-02T09:09:57;5.88;;;5.35;;
12348;SDS011;5974;42.710;27.258;2023-07-02T09:12:25;5.35;;;4.95;;
12348;SDS011;5974;42.710;27.258;2023-07-02T09:14:56;4.97;;;4.65;;
12348;SDS011;5974;42.710;27.258;2023-07-02T09:17:27;5.00;;;4.57;;
12348;SDS011;5974;42.710;27.258;2023-07-02T09:19:55;5.75;;;5.30;;
12348;SDS011;5974;42.710;27.258;2023-07-02T09:22:25;5.25;;;4.85;;
12348;SDS011;5974;42.710;27.258;2023-07-02T09:24:52;5.38;;;4.95;;
12348;SDS011;5974;42.710;27.258;2023-07-02T09:27:20;5.22;;;4.70;;
12348;SDS011;5974;42.710;27.258;2023-07-02T09:29:51;5.63;;;5.13;;
12348;SDS011;5974;42.710;27.258;2023-07-02T09:32:24;4.88;;;4.57;;
12348;SDS011;5974;42.710;27.258;2023-07-02T09:34:54;6.68;;;5.00;;
12348;SDS011;5974;42.710;27.258;2023-07-02T09:37:21;5.35;;;4.82;;
12348;SDS011;5974;42.710;27.258;2023-07-02T09:39:51;5.22;;;4.78;;
12348;SDS011;5974;42.710;27.258;2023-07-02T09:42:19;5.75;;;4.97;;
12348;SDS011;5974;42.710;27.258;2023-07-02T09:44:47;6.88;;;4.80;;
12348;SDS011;5974;42.710;27.258;2023-07-02T09:47:15;5.32;;;4.80;;
12348;SDS011;5974;42.710;27.258;2023-07-02T09:49:49;5.90;;;5.22;;
12348;SDS011;5974;42.710;27.258;2023-07-02T09:52:18;5.70;;;5.18;;
12348;SDS011;5974;42.710;27.258;2023-07-02T09:54:45;5.75;;;5.05;;
12348;SDS011;5974;42.710;27.258;2023-07-02T09:57:14;5.07;;;4.68;;
12348;SDS011;5974;42.710;27.258;2023-07-02T09:59:41;5.40;;;4.82;;
12348;SDS011;5974;42.710;27.258;2023-07-02T10:02:08;6.55;;;4.93;;
12348;SDS011;5974;42.710;27.258;2023-07-02T10:04:39;5.40;;;5.00;;
12348;SDS011;5974;42.710;27.258;2023-07-02T10:07:07;5.97;;;5.30;;
12348;SDS011;5974;42.710;27.258;2023-07-02T10:09:34;6.43;;;5.22;;
12348;SDS011;5974;42.710;27.258;2023-07-02T10:12:02;6.00;;;5.40;;
12348;SDS011;5974;42.710;27.258;2023-07-02T10:14:42;7.85;;;5.35;;
12348;SDS011;5974;42.710;27.258;2023-07-02T10:17:10;5.07;;;4.68;;
12348;SDS011;5974;42.710;27.258;2023-07-02T10:19:37;5.90;;;5.40;;
12348;SDS011;5974;42.710;27.258;2023-07-02T10:22:16;7.35;;;4.88;;
12348;SDS011;5974;42.710;27.258;2023-07-02T10:24:49;6.70;;;5.38;;
12348;SDS011;5974;42.710;27.258;2023-07-02T10:27:20;6.50;;;5.00;;
12348;SDS011;5974;42.710;27.258;2023-07-02T10:29:50;5.93;;;5.03;;
12348;SDS011;5974;42.710;27.258;2023-07-02T10:32:25;6.63;;;5.22;;
12348;SDS011;5974;42.710;27.258;2023-07-02T10:34:53;5.65;;;5.15;;
12348;SDS011;5974;42.710;27.258;2023-07-02T10:37:20;7.10;;;5.05;;
12348;SDS011;5974;42.710;27.258;2023-07-02T10:39:47;7.27;;;5.53;;
12348;SDS011;5974;42.710;27.258;2023-07-02T10:42:14;5.77;;;5.03;;
12348;SDS011;5974;42.710;27.258;2023-07-02T10:44:49;6.80;;;5.10;;
12348;SDS011;5974;42.710;27.258;2023-07-02T10:47:17;8.03;;;5.67;;
12348;SDS011;5974;42.710;27.258;2023-07-02T10:49:44;5.88;;;5.20;;
12348;SDS011;5974;42.710;27.258;2023-07-02T10:52:11;8.50;;;5.60;;
12348;SDS011;5974;42.710;27.258;2023-07-02T10:54:39;7.63;;;5.38;;
12348;SDS011;5974;42.710;27.258;2023-07-02T10:57:07;7.05;;;5.20;;
12348;SDS011;5974;42.710;27.258;2023-07-02T10:59:34;5.57;;;5.18;;
12348;SDS011;5974;42.710;27.258;2023-07-02T11:02:02;5.50;;;4.95;;
12348;SDS011;5974;42.710;27.258;2023-07-02T11:04:30;7.22;;;5.55;;
12348;SDS011;5974;42.710;27.258;2023-07-02T11:06:57;5.70;;;5.20;;
12348;SDS011;5974;42.710;27.258;2023-07-02T11:09:26;8.52;;;5.63;;
12348;SDS011;5974;42.710;27.258;2023-07-02T11:11:53;5.60;;;5.10;;
12348;SDS011;5974;42.710;27.258;2023-07-02T11:14:29;5.55;;;5.05;;
12348;SDS011;5974;42.710;27.258;2023-07-02T11:16:58;6.15;;;5.22;;
12348;SDS011;5974;42.710;27.258;2023-07-02T11:19:29;6.63;;;5.80;;
12348;SDS011;5974;42.710;27.258;2023-07-02T11:21:57;5.72;;;5.22;;
12348;SDS011;5974;42.710;27.258;2023-07-02T11:24:31;7.28;;;5.80;;
12348;SDS011;5974;42.710;27.258;2023-07-02T11:26:59;5.90;;;5.50;;
12348;SDS011;5974;42.710;27.258;2023-07-02T11:29:27;6.35;;;5.63;;
12348;SDS011;5974;42.710;27.258;2023-07-02T11:32:03;6.07;;;5.28;;
12348;SDS011;5974;42.710;27.258;2023-07-02T11:34:32;6.25;;;5.70;;
12348;SDS011;5974;42.710;27.258;2023-07-02T11:36:59;6.47;;;5.55;;
12348;SDS011;5974;42.710;27.258;2023-07-02T11:39:26;6.50;;;5.80;;
12348;SDS011;5974;42.710;27.258;2023-07-02T11:41:53;6.05;;;5.55;;
12348;SDS011;5974;42.710;27.258;2023-07-02T11:44:20;7.30;;;5.30;;
12348;SDS011;5974;42.710;27.258;2023-07-02T11:46:47;7.07;;;5.13;;
12348;SDS011;5974;42.710;27.258;2023-07-02T11:49:14;5.65;;;4.75;;
12348;SDS011;5974;42.710;27.258;2023-07-02T11:51:43;9.48;;;6.20;;
12348;SDS011;5974;42.710;27.258;2023-07-02T11:54:13;6.45;;;5.90;;
12348;SDS011;5974;42.710;27.258;2023-07-02T11:56:41;9.25;;;6.45;;
12348;SDS011;5974;42.710;27.258;2023-07-02T11:59:08;7.03;;;6.33;;
12348;SDS011;5974;42.710;27.258;2023-07-02T12:01:35;6.97;;;5.87;;
12348;SDS011;5974;42.710;27.258;2023-07-02T12:04:02;7.07;;;6.47;;
12348;SDS011;5974;42.710;27.258;2023-07-02T12:06:30;6.87;;;6.30;;
12348;SDS011;5974;42.710;27.258;2023-07-02T12:08:58;6.87;;;6.30;;
12348;SDS011;5974;42.710;27.258;2023-07-02T12:11:25;7.50;;;6.50;;
12348;SDS011;5974;42.710;27.258;2023-07-02T12:13:52;6.70;;;6.10;;
12348;SDS011;5974;42.710;27.258;2023-07-02T12:16:19;6.70;;;6.07;;
12348;SDS011;5974;42.710;27.258;2023-07-02T12:18:46;7.35;;;5.80;;
12348;SDS011;5974;42.710;27.258;2023-07-02T12:21:12;11.38;;;6.88;;
12348;SDS011;5974;42.710;27.258;2023-07-02T12:23:40;8.20;;;5.85;;
12348;SDS011;5974;42.710;27.258;2023-07-02T12:26:09;6.00;;;5.60;;
12348;SDS011;5974;42.710;27.258;2023-07-02T12:28:36;6.10;;;5.50;;
12348;SDS011;5974;42.710;27.258;2023-07-02T12:31:02;5.95;;;5.35;;
12348;SDS011;5974;42.710;27.258;2023-07-02T12:33:29;6.10;;;5.60;;
12348;SDS011;5974;42.710;27.258;2023-07-02T12:35:56;7.72;;;5.47;;
12348;SDS011;5974;42.710;27.258;2023-07-02T12:38:24;6.18;;;5.50;;
12348;SDS011;5974;42.710;27.258;2023-07-02T12:40:51;6.68;;;5.70;;
12348;SDS011;5974;42.710;27.258;2023-07-02T12:43:19;8.10;;;5.90;;
12348;SDS011;5974;42.710;27.258;2023-07-02T12:45:46;6.18;;;5.57;;
12348;SDS011;5974;42.710;27.258;2023-07-02T12:48:13;7.82;;;5.70;;
12348;SDS011;5974;42.710;27.258;2023-07-02T12:50:40;6.28;;;5.68;;
12348;SDS011;5974;42.710;27.258;2023-07-02T12:53:07;8.50;;;6.10;;
12348;SDS011;5974;42.710;27.258;2023-07-02T12:55:35;7.05;;;5.93;;
12348;SDS011;5974;42.710;27.258;2023-07-02T12:58:02;6.20;;;5.70;;
12348;SDS011;5974;42.710;27.258;2023-07-02T13:00:30;6.78;;;6.10;;
12348;SDS011;5974;42.710;27.258;2023-07-02T13:02:57;6.95;;;5.68;;
12348;SDS011;5974;42.710;27.258;2023-07-02T13:05:24;6.40;;;5.80;;
12348;SDS011;5974;42.710;27.258;2023-07-02T13:07:51;5.70;;;5.30;;
12348;SDS011;5974;42.710;27.258;2023-07-02T13:10:18;6.30;;;5.75;;
12348;SDS011;5974;42.710;27.258;2023-07-02T13:12:45;6.40;;;5.80;;
12348;SDS011;5974;42.710;27.258;2023-07-02T13:15:11;8.75;;;5.78;;
12348;SDS011;5974;42.710;27.258;2023-07-02T13:17:40;6.30;;;5.80;;
12348;SDS011;5974;42.710;27.258;2023-07-02T13:20:09;6.38;;;5.72;;
12348;SDS011;5974;42.710;27.258;2023-07-02T13:22:36;7.13;;;5.78;;
12348;SDS011;5974;42.710;27.258;2023-07-02T13:25:04;6.25;;;5.72;;
12348;SDS011;5974;42.710;27.258;2023-07-02T13:27:31;8.65;;;6.10;;
12348;SDS011;5974;42.710;27.258;2023-07-02T13:29:58;6.32;;;5.82;;
12348;SDS011;5974;42.710;27.258;2023-07-02T13:32:25;6.20;;;5.35;;
12348;SDS011;5974;42.710;27.258;2023-07-02T13:34:54;6.40;;;5.80;;
12348;SDS011;5974;42.710;27.258;2023-07-02T13:37:20;7.30;;;5.57;;
12348;SDS011;5974;42.710;27.258;2023-07-02T13:39:47;6.30;;;5.80;;
12348;SDS011;5974;42.710;27.258;2023-07-02T13:42:15;6.38;;;5.75;;
12348;SDS011;5974;42.710;27.258;2023-07-02T13:44:42;8.30;;;5.35;;
12348;SDS011;5974;42.710;27.258;2023-07-02T13:47:09;6.15;;;5.65;;
12348;SDS011;5974;42.710;27.258;2023-07-02T13:49:37;6.10;;;5.50;;
12348;SDS011;5974;42.710;27.258;2023-07-02T13:52:05;6.60;;;5.20;;
12348;SDS011;5974;42.710;27.258;2023-07-02T13:54:33;7.40;;;5.17;;
12348;SDS011;5974;42.710;27.258;2023-07-02T13:56:59;7.47;;;5.40;;
12348;SDS011;5974;42.710;27.258;2023-07-02T13:59:28;5.73;;;5.23;;
12348;SDS011;5974;42.710;27.258;2023-07-02T14:01:54;6.83;;;5.87;;
12348;SDS011;5974;42.710;27.258;2023-07-02T14:04:21;4.97;;;4.47;;
12348;SDS011;5974;42.710;27.258;2023-07-02T14:06:48;7.40;;;4.70;;
12348;SDS011;5974;42.710;27.258;2023-07-02T14:09:15;4.80;;;4.40;;
12348;SDS011;5974;42.710;27.258;2023-07-02T14:11:42;7.57;;;5.40;;
12348;SDS011;5974;42.710;27.258;2023-07-02T14:14:09;5.70;;;4.93;;
12348;SDS011;5974;42.710;27.258;2023-07-02T14:16:38;5.43;;;4.93;;
12348;SDS011;5974;42.710;27.258;2023-07-02T14:19:05;5.93;;;4.90;;
12348;SDS011;5974;42.710;27.258;2023-07-02T14:21:31;7.13;;;4.40;;
12348;SDS011;5974;42.710;27.258;2023-07-02T14:23:58;8.40;;;4.87;;
12348;SDS011;5974;42.710;27.258;2023-07-02T14:26:25;5.37;;;4.63;;
12348;SDS011;5974;42.710;27.258;2023-07-02T14:28:52;4.83;;;4.00;;
12348;SDS011;5974;42.710;27.258;2023-07-02T14:31:19;4.43;;;4.10;;
12348;SDS011;5974;42.710;27.258;2023-07-02T14:33:48;6.97;;;4.77;;
12348;SDS011;5974;42.710;27.258;2023-07-02T14:36:15;6.53;;;5.80;;
12348;SDS011;5974;42.710;27.258;2023-07-02T14:38:42;5.37;;;4.90;;
12348;SDS011;5974;42.710;27.258;2023-07-02T14:41:09;5.30;;;4.47;;
12348;SDS011;5974;42.710;27.258;2023-07-02T14:43:36;7.07;;;4.83;;
12348;SDS011;5974;42.710;27.258;2023-07-02T14:46:03;5.00;;;4.50;;
12348;SDS011;5974;42.710;27.258;2023-07-02T14:48:30;5.93;;;3.97;;
12348;SDS011;5974;42.710;27.258;2023-07-02T14:50:59;9.03;;;4.30;;